sensor_id;sensor_type;location;lat;lon;timestamp;P1;durP1;ratioP1;P2;durP2;ratioP2
29280;SDS011;25048;49.590;11.026;2024-02-26T00:02:01;8.17;;;2.87;;
29280;SDS011;25048;49.590;11.026;2024-02-26T00:04:29;3.67;;;2.37;;
29280;SDS011;25048;49.590;11.026;2024-02-26T00:06:56;5.33;;;2.70;;
29280;SDS011;25048;49.590;11.026;2024-02-26T00:09:24;5.13;;;3.10;;
29280;SDS011;25048;49.590;11.026;2024-02-26T00:11:51;4.20;;;2.43;;
29280;SDS011;25048;49.590;11.026;2024-02-26T00:14:19;3.80;;;2.40;;
29280;SDS011;25048;49.590;11.026;2024-02-26T00:16:47;3.97;;;2.07;;
29280;SDS011;25048;49.590;11.026;2024-02-26T00:19:14;3.83;;;1.97;;
29280;SDS011;25048;49.590;11.026;2024-02-26T00:21:42;4.27;;;1.90;;
29280;SDS011;25048;49.590;11.026;2024-02-26T00:24:09;3.50;;;1.97;;
29280;SDS011;25048;49.590;11.026;2024-02-26T00:26:37;3.13;;;2.07;;
29280;SDS011;25048;49.590;11.026;2024-02-26T00:29:04;3.23;;;1.67;;
29280;SDS011;25048;49.590;11.026;2024-02-26T00:31:32;3.57;;;2.10;;
29280;SDS011;25048;49.590;11.026;2024-02-26T00:34:00;4.70;;;2.13;;
29280;SDS011;25048;49.590;11.026;2024-02-26T00:36:27;3.73;;;1.87;;
29280;SDS011;25048;49.590;11.026;2024-02-26T00:38:55;3.47;;;2.03;;
29280;SDS011;25048;49.590;11.026;2024-02-26T00:41:22;2.83;;;1.80;;
29280;SDS011;25048;49.590;11.026;2024-02-26T00:43:50;4.80;;;2.20;;
29280;SDS011;25048;49.590;11.026;2024-02-26T00:46:17;2.80;;;1.97;;
29280;SDS011;25048;49.590;11.026;2024-02-26T00:48:45;3.00;;;2.13;;
29280;SDS011;25048;49.590;11.026;2024-02-26T00:51:12;4.87;;;2.17;;
29280;SDS011;25048;49.590;11.026;2024-02-26T00:53:41;3.43;;;2.43;;
29280;SDS011;25048;49.590;11.026;2024-02-26T00:56:08;3.53;;;2.27;;
29280;SDS011;25048;49.590;11.026;2024-02-26T00:58:36;2.70;;;1.90;;
29280;SDS011;25048;49.590;11.026;2024-02-26T01:01:03;4.33;;;2.10;;
29280;SDS011;25048;49.590;11.026;2024-02-26T01:03:31;3.97;;;2.17;;
29280;SDS011;25048;49.590;11.026;2024-02-26T01:05:58;3.07;;;2.10;;
29280;SDS011;25048;49.590;11.026;2024-02-26T01:08:26;4.43;;;2.10;;
29280;SDS011;25048;49.590;11.026;2024-02-26T01:10:53;2.93;;;1.70;;
29280;SDS011;25048;49.590;11.026;2024-02-26T01:13:21;2.10;;;1.70;;
29280;SDS011;25048;49.590;11.026;2024-02-26T01:15:48;3.73;;;2.40;;
29280;SDS011;25048;49.590;11.026;2024-02-26T01:18:16;3.83;;;2.43;;
29280;SDS011;25048;49.590;11.026;2024-02-26T01:20:43;3.63;;;2.10;;
29280;SDS011;25048;49.590;11.026;2024-02-26T01:23:12;5.03;;;2.37;;
29280;SDS011;25048;49.590;11.026;2024-02-26T01:25:39;2.93;;;2.10;;
29280;SDS011;25048;49.590;11.026;2024-02-26T01:28:08;3.60;;;2.03;;
29280;SDS011;25048;49.590;11.026;2024-02-26T01:30:36;3.80;;;1.80;;
29280;SDS011;25048;49.590;11.026;2024-02-26T01:33:03;3.40;;;2.00;;
29280;SDS011;25048;49.590;11.026;2024-02-26T01:35:31;2.83;;;1.87;;
29280;SDS011;25048;49.590;11.026;2024-02-26T01:37:58;3.50;;;2.07;;
29280;SDS011;25048;49.590;11.026;2024-02-26T01:40:29;7.07;;;2.40;;
29280;SDS011;25048;49.590;11.026;2024-02-26T01:42:56;3.77;;;2.27;;
29280;SDS011;25048;49.590;11.026;2024-02-26T01:45:24;4.73;;;2.53;;
29280;SDS011;25048;49.590;11.026;2024-02-26T01:47:51;2.77;;;2.10;;
29280;SDS011;25048;49.590;11.026;2024-02-26T01:50:20;3.67;;;2.23;;
29280;SDS011;25048;49.590;11.026;2024-02-26T01:52:52;4.00;;;2.30;;
29280;SDS011;25048;49.590;11.026;2024-02-26T01:55:19;4.93;;;2.63;;
29280;SDS011;25048;49.590;11.026;2024-02-26T01:57:52;3.53;;;2.10;;
29280;SDS011;25048;49.590;11.026;2024-02-26T02:00:20;4.30;;;2.30;;
29280;SDS011;25048;49.590;11.026;2024-02-26T02:02:53;4.00;;;2.20;;
29280;SDS011;25048;49.590;11.026;2024-02-26T02:05:20;4.43;;;2.57;;
29280;SDS011;25048;49.590;11.026;2024-02-26T02:07:48;6.50;;;2.93;;
29280;SDS011;25048;49.590;11.026;2024-02-26T02:10:17;4.17;;;2.80;;
29280;SDS011;25048;49.590;11.026;2024-02-26T02:12:46;5.23;;;3.17;;
29280;SDS011;25048;49.590;11.026;2024-02-26T02:15:14;6.17;;;2.77;;
29280;SDS011;25048;49.590;11.026;2024-02-26T02:17:42;6.50;;;3.23;;
29280;SDS011;25048;49.590;11.026;2024-02-26T02:20:10;7.80;;;3.33;;
29280;SDS011;25048;49.590;11.026;2024-02-26T02:22:43;6.30;;;2.93;;
29280;SDS011;25048;49.590;11.026;2024-02-26T02:25:11;5.37;;;3.23;;
29280;SDS011;25048;49.590;11.026;2024-02-26T02:27:39;4.93;;;3.10;;
29280;SDS011;25048;49.590;11.026;2024-02-26T02:30:08;4.93;;;2.87;;
29280;SDS011;25048;49.590;11.026;2024-02-26T02:32:37;5.47;;;2.70;;
29280;SDS011;25048;49.590;11.026;2024-02-26T02:35:07;6.93;;;2.77;;
29280;SDS011;25048;49.590;11.026;2024-02-26T02:37:35;6.73;;;3.00;;
29280;SDS011;25048;49.590;11.026;2024-02-26T02:40:03;6.30;;;3.30;;
29280;SDS011;25048;49.590;11.026;2024-02-26T02:42:31;6.17;;;3.37;;
29280;SDS011;25048;49.590;11.026;2024-02-26T02:44:58;5.67;;;2.90;;
29280;SDS011;25048;49.590;11.026;2024-02-26T02:47:26;6.63;;;3.50;;
29280;SDS011;25048;49.590;11.026;2024-02-26T02:49:53;6.00;;;3.07;;
29280;SDS011;25048;49.590;11.026;2024-02-26T02:52:21;4.40;;;2.47;;
29280;SDS011;25048;49.590;11.026;2024-02-26T02:54:48;6.90;;;2.97;;
29280;SDS011;25048;49.590;11.026;2024-02-26T02:57:16;5.00;;;2.63;;
29280;SDS011;25048;49.590;11.026;2024-02-26T02:59:43;6.33;;;3.13;;
29280;SDS011;25048;49.590;11.026;2024-02-26T03:02:11;4.40;;;2.63;;
29280;SDS011;25048;49.590;11.026;2024-02-26T03:04:38;4.87;;;3.00;;
29280;SDS011;25048;49.590;11.026;2024-02-26T03:07:06;7.13;;;3.40;;
29280;SDS011;25048;49.590;11.026;2024-02-26T03:09:33;4.40;;;2.50;;
29280;SDS011;25048;49.590;11.026;2024-02-26T03:12:01;6.87;;;3.17;;
29280;SDS011;25048;49.590;11.026;2024-02-26T03:14:28;5.30;;;2.77;;
29280;SDS011;25048;49.590;11.026;2024-02-26T03:16:56;5.50;;;2.93;;
29280;SDS011;25048;49.590;11.026;2024-02-26T03:19:24;9.73;;;3.37;;
29280;SDS011;25048;49.590;11.026;2024-02-26T03:21:52;5.80;;;3.10;;
29280;SDS011;25048;49.590;11.026;2024-02-26T03:24:19;5.77;;;2.63;;
29280;SDS011;25048;49.590;11.026;2024-02-26T03:26:47;5.90;;;2.47;;
29280;SDS011;25048;49.590;11.026;2024-02-26T03:29:14;4.67;;;2.60;;
29280;SDS011;25048;49.590;11.026;2024-02-26T03:31:42;5.67;;;2.83;;
29280;SDS011;25048;49.590;11.026;2024-02-26T03:34:09;6.03;;;2.50;;
29280;SDS011;25048;49.590;11.026;2024-02-26T03:36:38;4.47;;;2.63;;
29280;SDS011;25048;49.590;11.026;2024-02-26T03:39:05;6.30;;;3.00;;
29280;SDS011;25048;49.590;11.026;2024-02-26T03:41:33;5.43;;;3.03;;
29280;SDS011;25048;49.590;11.026;2024-02-26T03:44:01;4.30;;;2.73;;
29280;SDS011;25048;49.590;11.026;2024-02-26T03:46:29;5.53;;;2.70;;
29280;SDS011;25048;49.590;11.026;2024-02-26T03:48:57;4.57;;;2.43;;
29280;SDS011;25048;49.590;11.026;2024-02-26T03:51:24;5.43;;;2.63;;
29280;SDS011;25048;49.590;11.026;2024-02-26T03:53:54;4.87;;;2.40;;
29280;SDS011;25048;49.590;11.026;2024-02-26T03:56:21;4.70;;;2.70;;
29280;SDS011;25048;49.590;11.026;2024-02-26T03:58:49;4.80;;;2.63;;
29280;SDS011;25048;49.590;11.026;2024-02-26T04:01:16;5.40;;;2.20;;
29280;SDS011;25048;49.590;11.026;2024-02-26T04:03:44;6.93;;;2.60;;
29280;SDS011;25048;49.590;11.026;2024-02-26T04:06:11;4.17;;;2.43;;
29280;SDS011;25048;49.590;11.026;2024-02-26T04:08:43;5.83;;;2.53;;
29280;SDS011;25048;49.590;11.026;2024-02-26T04:11:11;7.43;;;2.80;;
29280;SDS011;25048;49.590;11.026;2024-02-26T04:13:39;6.00;;;2.53;;
29280;SDS011;25048;49.590;11.026;2024-02-26T04:16:06;5.47;;;3.03;;
29280;SDS011;25048;49.590;11.026;2024-02-26T04:18:34;5.87;;;3.00;;
29280;SDS011;25048;49.590;11.026;2024-02-26T04:21:01;6.53;;;2.83;;
29280;SDS011;25048;49.590;11.026;2024-02-26T04:23:29;4.47;;;2.90;;
29280;SDS011;25048;49.590;11.026;2024-02-26T04:25:56;3.80;;;2.40;;
29280;SDS011;25048;49.590;11.026;2024-02-26T04:28:25;5.63;;;3.03;;
29280;SDS011;25048;49.590;11.026;2024-02-26T04:30:54;5.70;;;3.20;;
29280;SDS011;25048;49.590;11.026;2024-02-26T04:33:22;7.10;;;3.13;;
29280;SDS011;25048;49.590;11.026;2024-02-26T04:35:50;7.23;;;3.27;;
29280;SDS011;25048;49.590;11.026;2024-02-26T04:38:17;5.43;;;3.07;;
29280;SDS011;25048;49.590;11.026;2024-02-26T04:40:45;5.30;;;3.20;;
29280;SDS011;25048;49.590;11.026;2024-02-26T04:43:12;8.63;;;3.90;;
29280;SDS011;25048;49.590;11.026;2024-02-26T04:45:40;7.80;;;3.33;;
29280;SDS011;25048;49.590;11.026;2024-02-26T04:48:07;8.67;;;3.73;;
29280;SDS011;25048;49.590;11.026;2024-02-26T04:50:35;8.40;;;3.57;;
29280;SDS011;25048;49.590;11.026;2024-02-26T04:53:02;6.63;;;3.73;;
29280;SDS011;25048;49.590;11.026;2024-02-26T04:55:30;8.77;;;3.93;;
29280;SDS011;25048;49.590;11.026;2024-02-26T04:57:58;5.10;;;3.27;;
29280;SDS011;25048;49.590;11.026;2024-02-26T05:00:25;7.07;;;3.70;;
29280;SDS011;25048;49.590;11.026;2024-02-26T05:02:53;8.37;;;3.50;;
29280;SDS011;25048;49.590;11.026;2024-02-26T05:05:20;7.80;;;3.83;;
29280;SDS011;25048;49.590;11.026;2024-02-26T05:07:48;8.77;;;3.97;;
29280;SDS011;25048;49.590;11.026;2024-02-26T05:10:15;6.47;;;3.50;;
29280;SDS011;25048;49.590;11.026;2024-02-26T05:12:43;8.07;;;4.17;;
29280;SDS011;25048;49.590;11.026;2024-02-26T05:15:11;7.33;;;3.87;;
29280;SDS011;25048;49.590;11.026;2024-02-26T05:17:40;5.83;;;3.60;;
29280;SDS011;25048;49.590;11.026;2024-02-26T05:20:08;5.60;;;3.37;;
29280;SDS011;25048;49.590;11.026;2024-02-26T05:22:36;6.97;;;3.23;;
29280;SDS011;25048;49.590;11.026;2024-02-26T05:25:04;5.33;;;3.37;;
29280;SDS011;25048;49.590;11.026;2024-02-26T05:27:32;7.73;;;3.30;;
29280;SDS011;25048;49.590;11.026;2024-02-26T05:29:59;5.03;;;2.93;;
29280;SDS011;25048;49.590;11.026;2024-02-26T05:32:27;4.93;;;3.20;;
29280;SDS011;25048;49.590;11.026;2024-02-26T05:34:54;5.97;;;3.37;;
29280;SDS011;25048;49.590;11.026;2024-02-26T05:37:22;5.90;;;3.20;;
29280;SDS011;25048;49.590;11.026;2024-02-26T05:39:49;5.20;;;2.93;;
29280;SDS011;25048;49.590;11.026;2024-02-26T05:42:17;5.93;;;3.03;;
29280;SDS011;25048;49.590;11.026;2024-02-26T05:44:45;6.40;;;2.57;;
29280;SDS011;25048;49.590;11.026;2024-02-26T05:47:12;5.20;;;2.90;;
29280;SDS011;25048;49.590;11.026;2024-02-26T05:49:40;5.23;;;2.97;;
29280;SDS011;25048;49.590;11.026;2024-02-26T05:52:07;6.30;;;3.37;;
29280;SDS011;25048;49.590;11.026;2024-02-26T05:54:35;4.93;;;3.03;;
29280;SDS011;25048;49.590;11.026;2024-02-26T05:57:02;5.87;;;3.23;;
29280;SDS011;25048;49.590;11.026;2024-02-26T05:59:30;4.50;;;2.80;;
29280;SDS011;25048;49.590;11.026;2024-02-26T06:01:58;6.13;;;3.33;;
29280;SDS011;25048;49.590;11.026;2024-02-26T06:04:25;6.27;;;2.97;;
29280;SDS011;25048;49.590;11.026;2024-02-26T06:06:53;10.67;;;3.63;;
29280;SDS011;25048;49.590;11.026;2024-02-26T06:09:20;5.87;;;3.23;;
29280;SDS011;25048;49.590;11.026;2024-02-26T06:11:49;5.67;;;2.50;;
29280;SDS011;25048;49.590;11.026;2024-02-26T06:14:17;6.80;;;3.63;;
29280;SDS011;25048;49.590;11.026;2024-02-26T06:16:45;4.90;;;2.90;;
29280;SDS011;25048;49.590;11.026;2024-02-26T06:19:13;6.17;;;2.93;;
29280;SDS011;25048;49.590;11.026;2024-02-26T06:21:41;5.37;;;3.10;;
29280;SDS011;25048;49.590;11.026;2024-02-26T06:24:08;5.93;;;2.90;;
29280;SDS011;25048;49.590;11.026;2024-02-26T06:26:36;9.97;;;3.23;;
29280;SDS011;25048;49.590;11.026;2024-02-26T06:29:03;5.63;;;3.30;;
29280;SDS011;25048;49.590;11.026;2024-02-26T06:31:31;4.53;;;2.73;;
29280;SDS011;25048;49.590;11.026;2024-02-26T06:33:58;5.53;;;3.03;;
29280;SDS011;25048;49.590;11.026;2024-02-26T06:36:26;6.00;;;3.50;;
29280;SDS011;25048;49.590;11.026;2024-02-26T06:38:53;6.17;;;3.00;;
29280;SDS011;25048;49.590;11.026;2024-02-26T06:41:21;5.50;;;2.77;;
29280;SDS011;25048;49.590;11.026;2024-02-26T06:43:50;5.83;;;2.70;;
29280;SDS011;25048;49.590;11.026;2024-02-26T06:46:18;7.70;;;3.63;;
29280;SDS011;25048;49.590;11.026;2024-02-26T06:48:45;6.07;;;3.60;;
29280;SDS011;25048;49.590;11.026;2024-02-26T06:51:14;7.37;;;3.53;;
29280;SDS011;25048;49.590;11.026;2024-02-26T06:53:42;4.93;;;2.97;;
29280;SDS011;25048;49.590;11.026;2024-02-26T06:56:09;5.63;;;3.13;;
29280;SDS011;25048;49.590;11.026;2024-02-26T06:58:37;5.00;;;2.57;;
29280;SDS011;25048;49.590;11.026;2024-02-26T07:01:04;5.70;;;2.90;;
29280;SDS011;25048;49.590;11.026;2024-02-26T07:03:34;6.07;;;2.40;;
29280;SDS011;25048;49.590;11.026;2024-02-26T07:06:01;2.83;;;2.23;;
29280;SDS011;25048;49.590;11.026;2024-02-26T07:08:29;5.53;;;2.90;;
29280;SDS011;25048;49.590;11.026;2024-02-26T07:10:57;6.13;;;2.77;;
29280;SDS011;25048;49.590;11.026;2024-02-26T07:13:24;5.90;;;2.83;;
29280;SDS011;25048;49.590;11.026;2024-02-26T07:15:52;4.03;;;2.60;;
29280;SDS011;25048;49.590;11.026;2024-02-26T07:18:19;4.30;;;2.60;;
29280;SDS011;25048;49.590;11.026;2024-02-26T07:20:47;6.83;;;2.93;;
29280;SDS011;25048;49.590;11.026;2024-02-26T07:23:14;4.83;;;2.67;;
29280;SDS011;25048;49.590;11.026;2024-02-26T07:25:42;6.70;;;2.93;;
29280;SDS011;25048;49.590;11.026;2024-02-26T07:28:10;3.80;;;2.47;;
29280;SDS011;25048;49.590;11.026;2024-02-26T07:30:38;6.03;;;2.80;;
29280;SDS011;25048;49.590;11.026;2024-02-26T07:33:05;6.00;;;3.03;;
29280;SDS011;25048;49.590;11.026;2024-02-26T07:35:33;7.63;;;2.77;;
29280;SDS011;25048;49.590;11.026;2024-02-26T07:38:02;7.13;;;2.77;;
29280;SDS011;25048;49.590;11.026;2024-02-26T07:40:29;5.40;;;2.90;;
29280;SDS011;25048;49.590;11.026;2024-02-26T07:42:57;6.70;;;3.37;;
29280;SDS011;25048;49.590;11.026;2024-02-26T07:45:25;6.07;;;2.97;;
29280;SDS011;25048;49.590;11.026;2024-02-26T07:47:52;6.70;;;2.77;;
29280;SDS011;25048;49.590;11.026;2024-02-26T07:50:19;4.63;;;2.80;;
29280;SDS011;25048;49.590;11.026;2024-02-26T07:52:47;6.77;;;2.03;;
29280;SDS011;25048;49.590;11.026;2024-02-26T07:55:16;8.53;;;2.57;;
29280;SDS011;25048;49.590;11.026;2024-02-26T07:57:44;5.43;;;2.80;;
29280;SDS011;25048;49.590;11.026;2024-02-26T08:00:12;4.73;;;2.43;;
29280;SDS011;25048;49.590;11.026;2024-02-26T08:02:42;4.47;;;2.57;;
29280;SDS011;25048;49.590;11.026;2024-02-26T08:05:10;4.47;;;2.53;;
29280;SDS011;25048;49.590;11.026;2024-02-26T08:07:37;4.30;;;2.90;;
29280;SDS011;25048;49.590;11.026;2024-02-26T08:10:05;5.20;;;3.10;;
29280;SDS011;25048;49.590;11.026;2024-02-26T08:12:33;5.77;;;2.87;;
29280;SDS011;25048;49.590;11.026;2024-02-26T08:15:00;5.20;;;3.20;;
29280;SDS011;25048;49.590;11.026;2024-02-26T08:17:28;7.07;;;3.23;;
29280;SDS011;25048;49.590;11.026;2024-02-26T08:19:56;6.23;;;3.03;;
29280;SDS011;25048;49.590;11.026;2024-02-26T08:22:23;5.77;;;3.13;;
29280;SDS011;25048;49.590;11.026;2024-02-26T08:24:51;5.23;;;3.57;;
29280;SDS011;25048;49.590;11.026;2024-02-26T08:27:18;6.23;;;3.30;;
29280;SDS011;25048;49.590;11.026;2024-02-26T08:29:46;4.83;;;2.80;;
29280;SDS011;25048;49.590;11.026;2024-02-26T08:32:13;6.47;;;3.23;;
29280;SDS011;25048;49.590;11.026;2024-02-26T08:34:41;4.83;;;2.87;;
29280;SDS011;25048;49.590;11.026;2024-02-26T08:37:08;4.83;;;2.50;;
29280;SDS011;25048;49.590;11.026;2024-02-26T08:39:36;4.50;;;2.60;;
29280;SDS011;25048;49.590;11.026;2024-02-26T08:42:05;6.30;;;3.00;;
29280;SDS011;25048;49.590;11.026;2024-02-26T08:44:32;5.77;;;2.90;;
29280;SDS011;25048;49.590;11.026;2024-02-26T08:47:00;7.40;;;2.70;;
29280;SDS011;25048;49.590;11.026;2024-02-26T08:49:28;7.10;;;2.97;;
29280;SDS011;25048;49.590;11.026;2024-02-26T08:51:55;5.10;;;2.63;;
29280;SDS011;25048;49.590;11.026;2024-02-26T08:54:23;3.97;;;2.43;;
29280;SDS011;25048;49.590;11.026;2024-02-26T08:56:50;5.97;;;3.00;;
29280;SDS011;25048;49.590;11.026;2024-02-26T08:59:18;4.37;;;2.63;;
29280;SDS011;25048;49.590;11.026;2024-02-26T09:01:47;5.60;;;3.23;;
29280;SDS011;25048;49.590;11.026;2024-02-26T09:04:15;5.30;;;2.97;;
29280;SDS011;25048;49.590;11.026;2024-02-26T09:06:42;6.77;;;2.77;;
29280;SDS011;25048;49.590;11.026;2024-02-26T09:09:10;6.17;;;2.87;;
29280;SDS011;25048;49.590;11.026;2024-02-26T09:11:37;6.67;;;3.27;;
29280;SDS011;25048;49.590;11.026;2024-02-26T09:14:05;5.77;;;2.60;;
29280;SDS011;25048;49.590;11.026;2024-02-26T09:16:32;5.27;;;3.10;;
29280;SDS011;25048;49.590;11.026;2024-02-26T09:19:00;4.73;;;2.93;;
29280;SDS011;25048;49.590;11.026;2024-02-26T09:21:28;3.93;;;2.83;;
29280;SDS011;25048;49.590;11.026;2024-02-26T09:23:56;5.90;;;3.10;;
29280;SDS011;25048;49.590;11.026;2024-02-26T09:26:23;5.53;;;3.70;;
29280;SDS011;25048;49.590;11.026;2024-02-26T09:28:51;5.67;;;3.30;;
29280;SDS011;25048;49.590;11.026;2024-02-26T09:31:18;4.77;;;2.80;;
29280;SDS011;25048;49.590;11.026;2024-02-26T09:33:46;5.67;;;3.20;;
29280;SDS011;25048;49.590;11.026;2024-02-26T09:36:14;5.97;;;3.20;;
29280;SDS011;25048;49.590;11.026;2024-02-26T09:38:41;6.27;;;3.63;;
29280;SDS011;25048;49.590;11.026;2024-02-26T09:41:13;9.23;;;4.33;;
29280;SDS011;25048;49.590;11.026;2024-02-26T09:43:39;8.53;;;3.67;;
29280;SDS011;25048;49.590;11.026;2024-02-26T09:46:12;7.60;;;3.00;;
29280;SDS011;25048;49.590;11.026;2024-02-26T09:48:42;4.73;;;3.00;;
29280;SDS011;25048;49.590;11.026;2024-02-26T09:51:11;4.67;;;2.80;;
29280;SDS011;25048;49.590;11.026;2024-02-26T09:53:39;5.47;;;3.07;;
29280;SDS011;25048;49.590;11.026;2024-02-26T09:56:09;5.47;;;2.80;;
29280;SDS011;25048;49.590;11.026;2024-02-26T09:58:41;5.30;;;3.07;;
29280;SDS011;25048;49.590;11.026;2024-02-26T10:01:12;6.87;;;3.30;;
29280;SDS011;25048;49.590;11.026;2024-02-26T10:03:42;6.07;;;3.37;;
29280;SDS011;25048;49.590;11.026;2024-02-26T10:06:11;5.60;;;3.17;;
29280;SDS011;25048;49.590;11.026;2024-02-26T10:08:39;5.30;;;3.20;;
29280;SDS011;25048;49.590;11.026;2024-02-26T10:11:08;7.57;;;3.50;;
29280;SDS011;25048;49.590;11.026;2024-02-26T10:13:36;6.40;;;3.37;;
29280;SDS011;25048;49.590;11.026;2024-02-26T10:16:04;5.10;;;2.87;;
29280;SDS011;25048;49.590;11.026;2024-02-26T10:18:45;6.47;;;3.50;;
29280;SDS011;25048;49.590;11.026;2024-02-26T10:21:13;7.23;;;3.17;;
29280;SDS011;25048;49.590;11.026;2024-02-26T10:23:43;4.53;;;2.87;;
29280;SDS011;25048;49.590;11.026;2024-02-26T10:26:13;6.23;;;3.57;;
29280;SDS011;25048;49.590;11.026;2024-02-26T10:28:42;4.57;;;2.90;;
29280;SDS011;25048;49.590;11.026;2024-02-26T10:31:10;4.57;;;2.90;;
29280;SDS011;25048;49.590;11.026;2024-02-26T10:33:39;4.03;;;3.00;;
29280;SDS011;25048;49.590;11.026;2024-02-26T10:36:07;3.43;;;2.50;;
29280;SDS011;25048;49.590;11.026;2024-02-26T10:38:36;4.95;;;2.75;;
29280;SDS011;25048;49.590;11.026;2024-02-26T10:41:04;4.00;;;2.50;;
29280;SDS011;25048;49.590;11.026;2024-02-26T10:43:34;3.37;;;2.30;;
29280;SDS011;25048;49.590;11.026;2024-02-26T10:46:02;4.27;;;2.50;;
29280;SDS011;25048;49.590;11.026;2024-02-26T10:48:29;4.55;;;2.55;;
29280;SDS011;25048;49.590;11.026;2024-02-26T10:50:57;4.50;;;2.40;;
29280;SDS011;25048;49.590;11.026;2024-02-26T10:53:25;3.95;;;2.27;;
29280;SDS011;25048;49.590;11.026;2024-02-26T10:55:58;3.87;;;2.40;;
29280;SDS011;25048;49.590;11.026;2024-02-26T10:58:25;3.45;;;2.22;;
29280;SDS011;25048;49.590;11.026;2024-02-26T11:00:56;3.92;;;2.52;;
29280;SDS011;25048;49.590;11.026;2024-02-26T11:03:24;4.08;;;2.40;;
29280;SDS011;25048;49.590;11.026;2024-02-26T11:05:53;4.42;;;2.25;;
29280;SDS011;25048;49.590;11.026;2024-02-26T11:08:21;4.33;;;2.83;;
29280;SDS011;25048;49.590;11.026;2024-02-26T11:10:52;4.62;;;2.70;;
29280;SDS011;25048;49.590;11.026;2024-02-26T11:13:21;3.85;;;2.05;;
29280;SDS011;25048;49.590;11.026;2024-02-26T11:15:51;4.97;;;2.77;;
29280;SDS011;25048;49.590;11.026;2024-02-26T11:18:20;5.78;;;2.60;;
29280;SDS011;25048;49.590;11.026;2024-02-26T11:20:50;5.55;;;2.65;;
29280;SDS011;25048;49.590;11.026;2024-02-26T11:23:20;5.55;;;3.17;;
29280;SDS011;25048;49.590;11.026;2024-02-26T11:25:48;4.15;;;2.85;;
29280;SDS011;25048;49.590;11.026;2024-02-26T11:28:17;3.60;;;2.42;;
29280;SDS011;25048;49.590;11.026;2024-02-26T11:30:48;5.33;;;2.77;;
29280;SDS011;25048;49.590;11.026;2024-02-26T11:33:16;3.12;;;2.42;;
29280;SDS011;25048;49.590;11.026;2024-02-26T11:35:45;6.80;;;2.60;;
29280;SDS011;25048;49.590;11.026;2024-02-26T11:38:23;4.33;;;2.40;;
29280;SDS011;25048;49.590;11.026;2024-02-26T11:40:48;3.83;;;2.37;;
29280;SDS011;25048;49.590;11.026;2024-02-26T11:43:17;3.70;;;2.25;;
29280;SDS011;25048;49.590;11.026;2024-02-26T11:45:48;4.42;;;2.40;;
29280;SDS011;25048;49.590;11.026;2024-02-26T11:48:22;4.25;;;2.58;;
29280;SDS011;25048;49.590;11.026;2024-02-26T11:50:51;4.42;;;2.50;;
29280;SDS011;25048;49.590;11.026;2024-02-26T11:53:21;4.83;;;2.35;;
29280;SDS011;25048;49.590;11.026;2024-02-26T11:58:47;3.80;;;2.50;;
29280;SDS011;25048;49.590;11.026;2024-02-26T12:04:08;3.33;;;2.22;;
29280;SDS011;25048;49.590;11.026;2024-02-26T12:06:42;3.20;;;2.30;;
29280;SDS011;25048;49.590;11.026;2024-02-26T12:12:18;3.95;;;2.37;;
29280;SDS011;25048;49.590;11.026;2024-02-26T12:14:52;4.37;;;2.30;;
29280;SDS011;25048;49.590;11.026;2024-02-26T12:17:22;3.62;;;2.37;;
29280;SDS011;25048;49.590;11.026;2024-02-26T12:19:51;3.58;;;2.10;;
29280;SDS011;25048;49.590;11.026;2024-02-26T12:22:20;4.80;;;2.72;;
29280;SDS011;25048;49.590;11.026;2024-02-26T12:24:48;3.90;;;2.17;;
29280;SDS011;25048;49.590;11.026;2024-02-26T12:27:19;5.10;;;2.33;;
29280;SDS011;25048;49.590;11.026;2024-02-26T12:29:46;4.45;;;2.50;;
29280;SDS011;25048;49.590;11.026;2024-02-26T12:32:14;4.10;;;2.65;;
29280;SDS011;25048;49.590;11.026;2024-02-26T12:34:42;2.95;;;2.20;;
29280;SDS011;25048;49.590;11.026;2024-02-26T12:37:11;3.72;;;2.17;;
29280;SDS011;25048;49.590;11.026;2024-02-26T12:39:39;4.85;;;2.27;;
29280;SDS011;25048;49.590;11.026;2024-02-26T12:42:07;3.60;;;2.25;;
29280;SDS011;25048;49.590;11.026;2024-02-26T12:44:35;3.58;;;2.12;;
29280;SDS011;25048;49.590;11.026;2024-02-26T12:47:02;3.60;;;2.22;;
29280;SDS011;25048;49.590;11.026;2024-02-26T12:49:31;2.75;;;2.12;;
29280;SDS011;25048;49.590;11.026;2024-02-26T12:51:59;3.50;;;2.02;;
29280;SDS011;25048;49.590;11.026;2024-02-26T12:54:33;6.15;;;2.55;;
29280;SDS011;25048;49.590;11.026;2024-02-26T12:57:02;3.60;;;2.50;;
29280;SDS011;25048;49.590;11.026;2024-02-26T12:59:33;3.47;;;2.72;;
29280;SDS011;25048;49.590;11.026;2024-02-26T13:02:02;3.08;;;2.20;;
29280;SDS011;25048;49.590;11.026;2024-02-26T13:04:31;2.52;;;2.20;;
29280;SDS011;25048;49.590;11.026;2024-02-26T13:06:59;3.55;;;2.40;;
29280;SDS011;25048;49.590;11.026;2024-02-26T13:09:32;3.27;;;2.35;;
29280;SDS011;25048;49.590;11.026;2024-02-26T13:12:03;4.58;;;2.08;;
29280;SDS011;25048;49.590;11.026;2024-02-26T13:14:33;2.72;;;2.12;;
29280;SDS011;25048;49.590;11.026;2024-02-26T13:17:01;2.80;;;2.00;;
29280;SDS011;25048;49.590;11.026;2024-02-26T13:19:29;3.00;;;2.12;;
29280;SDS011;25048;49.590;11.026;2024-02-26T13:22:06;2.95;;;1.95;;
29280;SDS011;25048;49.590;11.026;2024-02-26T13:24:33;3.83;;;2.02;;
29280;SDS011;25048;49.590;11.026;2024-02-26T13:27:02;2.00;;;1.60;;
29280;SDS011;25048;49.590;11.026;2024-02-26T13:29:31;2.33;;;1.72;;
29280;SDS011;25048;49.590;11.026;2024-02-26T13:31:59;3.25;;;2.02;;
29280;SDS011;25048;49.590;11.026;2024-02-26T13:34:27;3.12;;;1.70;;
29280;SDS011;25048;49.590;11.026;2024-02-26T13:36:56;2.12;;;1.75;;
29280;SDS011;25048;49.590;11.026;2024-02-26T13:39:24;2.12;;;1.70;;
29280;SDS011;25048;49.590;11.026;2024-02-26T13:41:53;3.02;;;1.90;;
29280;SDS011;25048;49.590;11.026;2024-02-26T13:44:22;2.47;;;2.00;;
29280;SDS011;25048;49.590;11.026;2024-02-26T13:46:50;3.05;;;2.37;;
29280;SDS011;25048;49.590;11.026;2024-02-26T13:49:17;2.70;;;1.87;;
29280;SDS011;25048;49.590;11.026;2024-02-26T13:51:45;2.80;;;1.40;;
29280;SDS011;25048;49.590;11.026;2024-02-26T13:54:12;1.95;;;1.57;;
29280;SDS011;25048;49.590;11.026;2024-02-26T13:56:40;2.65;;;1.60;;
29280;SDS011;25048;49.590;11.026;2024-02-26T13:59:08;1.75;;;1.40;;
29280;SDS011;25048;49.590;11.026;2024-02-26T14:01:35;2.00;;;1.40;;
29280;SDS011;25048;49.590;11.026;2024-02-26T14:04:03;1.60;;;1.20;;
29280;SDS011;25048;49.590;11.026;2024-02-26T14:06:31;2.58;;;1.67;;
29280;SDS011;25048;49.590;11.026;2024-02-26T14:08:58;2.15;;;1.30;;
29280;SDS011;25048;49.590;11.026;2024-02-26T14:11:26;4.15;;;1.67;;
29280;SDS011;25048;49.590;11.026;2024-02-26T14:13:55;1.70;;;1.60;;
29280;SDS011;25048;49.590;11.026;2024-02-26T14:16:23;3.95;;;2.22;;
29280;SDS011;25048;49.590;11.026;2024-02-26T14:18:56;4.83;;;1.50;;
29280;SDS011;25048;49.590;11.026;2024-02-26T14:21:29;2.10;;;1.62;;
29280;SDS011;25048;49.590;11.026;2024-02-26T14:24:00;2.02;;;1.47;;
29280;SDS011;25048;49.590;11.026;2024-02-26T14:26:29;2.22;;;1.50;;
29280;SDS011;25048;49.590;11.026;2024-02-26T14:28:57;2.00;;;1.60;;
29280;SDS011;25048;49.590;11.026;2024-02-26T14:31:24;3.00;;;1.60;;
29280;SDS011;25048;49.590;11.026;2024-02-26T14:33:52;2.22;;;1.77;;
29280;SDS011;25048;49.590;11.026;2024-02-26T14:36:20;2.60;;;1.70;;
29280;SDS011;25048;49.590;11.026;2024-02-26T14:38:48;2.45;;;1.47;;
29280;SDS011;25048;49.590;11.026;2024-02-26T14:41:15;2.87;;;1.70;;
29280;SDS011;25048;49.590;11.026;2024-02-26T14:43:43;1.67;;;1.57;;
29280;SDS011;25048;49.590;11.026;2024-02-26T14:46:10;2.67;;;1.92;;
29280;SDS011;25048;49.590;11.026;2024-02-26T14:48:38;3.25;;;2.25;;